Main page
METAR-TAF:

METAR-TAF

Airports :

Cerklje ob Krki Airport

Cerklje ob Krki, Slovenia

latitude: 45-53-59N, longitude: 15-30-55E, elevation: 157 m

Current weather observation

The report was made 34 minutes ago, at 03:00 UTC
Wind 3 kt from the South
Temperature 0°C
Humidity 93%
Pressure 1013 hPa
Visibility 10 km or more

METAR: LJCE 250300Z AUTO 17003KT 9999 NCD M00/M01 Q1013

Time: 04:34 (03:34 UTC)

Forecast

The report was made 1 hour and 34 minutes ago, at 02:00 UTC
Forecast valid from 25 at 03 UTC to 25 at 12 UTC
Wind 2 kt from variable directions
Visibility 10 km or more
no clouds below 1500 m and no cumulonimbus
Becoming
from 25 at 03 UTC to 25 at 05 UTC
Scattered clouds at a height of 4000 ft
Temporary
from 25 at 05 UTC to 25 at 12 UTC
Broken clouds at a height of 4000 ft
Becoming
from 25 at 08 UTC to 25 at 10 UTC
Wind 5 kt from the West

TAF: LJCE 250200Z 2503/2512 VRB02KT CAVOK BECMG 2503/2505 SCT040 TEMPO 2505/2512 BKN040 BECMG 2508/2510 26005KT

Weather observations and forecasts of more than 4000 airports (METAR and TAF reports).

The available stations are represented by yellow and red dots on the map.

Hover mouse over dot to see the name of the station.

Then click to see weather observations and forecasts.

To change the map : click on the green buttons with a black cross to zoom in, on the green button with a dash to zoom out, or on the green arrows for adjacent maps.


METAR-TAF: